createdAt,value
2022-12-17T00:00:27.765Z,19.17
2022-12-17T00:03:18.635Z,22.10
2022-12-17T00:06:05.287Z,22.07
2022-12-17T00:08:52.061Z,22.17
2022-12-17T00:11:38.788Z,20.23
2022-12-17T00:14:25.627Z,19.17
2022-12-17T00:17:12.478Z,19.03
2022-12-17T00:20:00.460Z,18.90
2022-12-17T00:22:46.855Z,18.57
2022-12-17T00:25:33.551Z,18.00
2022-12-17T00:28:19.949Z,18.80
2022-12-17T00:31:10.697Z,18.50
2022-12-17T00:33:57.367Z,18.43
2022-12-17T00:36:45.346Z,18.40
2022-12-17T00:39:37.492Z,18.77
2022-12-17T00:42:24.393Z,19.33
2022-12-17T00:45:10.701Z,19.27
2022-12-17T00:47:57.138Z,18.97
2022-12-17T00:50:44.008Z,19.00
2022-12-17T00:53:31.896Z,18.40
2022-12-17T00:56:18.665Z,18.07
2022-12-17T00:59:13.749Z,17.53
2022-12-17T01:02:00.319Z,18.37
2022-12-17T01:04:46.885Z,16.90
2022-12-17T01:07:33.599Z,15.87
2022-12-17T01:10:23.662Z,14.53
2022-12-17T01:13:10.705Z,15.20
2022-12-17T01:15:57.179Z,15.13
2022-12-17T01:18:43.669Z,15.47
2022-12-17T01:21:30.184Z,16.23
2022-12-17T01:24:16.719Z,15.80
2022-12-17T01:27:05.121Z,15.93
2022-12-17T01:29:52.018Z,15.80
2022-12-17T01:32:38.347Z,14.57
2022-12-17T01:35:25.480Z,14.43
2022-12-17T01:38:11.929Z,15.50
2022-12-17T01:40:58.323Z,15.83
2022-12-17T01:43:54.979Z,15.50
2022-12-17T01:46:42.618Z,13.93
2022-12-17T01:49:30.806Z,13.10
2022-12-17T01:52:18.741Z,13.13
2022-12-17T01:55:05.710Z,12.23
2022-12-17T01:57:52.974Z,12.47
2022-12-17T02:00:42.076Z,12.57
2022-12-17T02:03:33.198Z,14.87
2022-12-17T02:06:30.174Z,26.53
2022-12-17T02:09:26.061Z,31.80
2022-12-17T02:12:21.561Z,37.47
2022-12-17T02:15:16.398Z,40.67
2022-12-17T02:18:10.861Z,41.03
2022-12-17T02:21:00.989Z,47.13
2022-12-17T02:23:58.526Z,50.57
2022-12-17T02:26:55.053Z,50.90
2022-12-17T02:29:43.641Z,51.30
2022-12-17T02:32:32.367Z,51.53
2022-12-17T02:35:20.653Z,50.03
2022-12-17T02:38:07.551Z,49.70
2022-12-17T02:40:56.854Z,48.03
2022-12-17T02:43:47.246Z,49.23
2022-12-17T02:46:49.874Z,50.37
2022-12-17T02:49:36.684Z,48.50
2022-12-17T02:52:23.696Z,48.57
2022-12-17T02:55:10.446Z,43.73
2022-12-17T02:57:57.152Z,44.53
2022-12-17T03:00:48.391Z,42.87
2022-12-17T03:03:35.872Z,42.17
2022-12-17T03:06:23.323Z,39.70
2022-12-17T03:09:09.995Z,37.77
2022-12-17T03:11:56.551Z,38.20
2022-12-17T03:14:43.245Z,37.23
2022-12-17T03:17:31.058Z,33.80
2022-12-17T03:20:17.457Z,35.57
2022-12-17T03:23:03.797Z,34.37
2022-12-17T03:25:50.503Z,34.63
2022-12-17T03:28:37.042Z,34.70
2022-12-17T03:31:22.755Z,33.50
2022-12-17T03:34:10.735Z,32.23
2022-12-17T03:36:57.251Z,33.37
2022-12-17T03:39:43.615Z,32.30
2022-12-17T03:42:29.835Z,32.13
2022-12-17T03:45:16.365Z,31.40
2022-12-17T03:48:02.810Z,27.20
2022-12-17T03:50:50.582Z,27.63
2022-12-17T03:53:37.390Z,27.97
2022-12-17T03:56:24.629Z,26.77
2022-12-17T03:59:11.222Z,25.73
2022-12-17T04:01:57.771Z,24.43
2022-12-17T04:04:44.633Z,24.37
2022-12-17T04:07:32.556Z,23.87
2022-12-17T04:10:19.011Z,23.70
2022-12-17T04:13:05.805Z,23.90
2022-12-17T04:15:52.180Z,23.17
2022-12-17T04:18:38.872Z,22.60
2022-12-17T04:21:25.620Z,20.97
2022-12-17T04:24:15.885Z,21.13
2022-12-17T04:27:02.501Z,21.63
2022-12-17T04:29:48.800Z,22.17
2022-12-17T04:32:35.740Z,25.17
2022-12-17T04:35:22.358Z,26.13
2022-12-17T04:38:09.312Z,25.63
2022-12-17T04:40:57.562Z,27.57
2022-12-17T04:43:43.791Z,29.00
2022-12-17T04:46:30.539Z,27.57
2022-12-17T04:49:17.744Z,31.23
2022-12-17T04:52:04.060Z,34.80
2022-12-17T04:54:50.374Z,35.17
2022-12-17T04:57:38.319Z,34.97
2022-12-17T05:00:25.619Z,36.10
2022-12-17T05:03:11.939Z,34.93
2022-12-17T05:05:58.712Z,35.03
2022-12-17T05:08:56.581Z,33.40
2022-12-17T05:11:43.029Z,33.47
2022-12-17T05:14:30.851Z,34.00
2022-12-17T05:17:17.236Z,33.50
2022-12-17T05:20:03.479Z,32.63
2022-12-17T05:22:50.373Z,30.23
2022-12-17T05:25:37.030Z,30.63
2022-12-17T05:28:23.441Z,29.67
2022-12-17T05:31:13.339Z,27.67
2022-12-17T05:34:00.634Z,27.43
2022-12-17T05:36:47.492Z,26.93
2022-12-17T05:39:34.203Z,25.23
2022-12-17T05:42:20.496Z,25.03
2022-12-17T05:45:06.817Z,25.53
2022-12-17T05:47:54.629Z,23.20
2022-12-17T05:50:41.420Z,22.53
2022-12-17T05:53:29.267Z,23.73
2022-12-17T05:56:27.107Z,24.93
2022-12-17T05:59:13.852Z,25.33
2022-12-17T06:02:00.610Z,25.53
2022-12-17T06:04:48.747Z,25.97
2022-12-17T06:07:35.136Z,25.43
2022-12-17T06:10:33.428Z,25.30
2022-12-17T06:13:20.216Z,24.27
2022-12-17T06:16:08.282Z,24.43
2022-12-17T06:18:54.957Z,22.10
2022-12-17T06:21:43.226Z,21.80
2022-12-17T06:24:29.987Z,20.13
2022-12-17T06:27:16.277Z,19.73
2022-12-17T06:30:02.668Z,18.70
2022-12-17T06:32:48.947Z,17.83
2022-12-17T06:35:35.726Z,19.93
2022-12-17T06:38:25.321Z,21.67
2022-12-17T06:41:12.160Z,20.27
2022-12-17T06:43:58.634Z,19.83
2022-12-17T06:46:45.072Z,17.47
2022-12-17T06:49:31.635Z,17.77
2022-12-17T06:52:18.108Z,16.57
2022-12-17T06:55:05.947Z,15.80
2022-12-17T06:57:54.697Z,11.57
2022-12-17T07:00:43.956Z,10.80
2022-12-17T07:03:31.252Z,8.23
2022-12-17T07:06:19.458Z,9.30
2022-12-17T07:09:06.534Z,8.77
2022-12-17T07:11:54.392Z,9.00
2022-12-17T07:14:41.010Z,7.93
2022-12-17T07:17:27.475Z,7.50
2022-12-17T07:20:13.998Z,7.33
2022-12-17T07:23:00.556Z,7.47
2022-12-17T07:25:47.299Z,8.13
2022-12-17T07:28:35.048Z,7.60
2022-12-17T07:31:21.526Z,8.17
2022-12-17T07:34:08.115Z,8.70
2022-12-17T07:36:54.477Z,9.43
2022-12-17T07:39:41.305Z,9.57
2022-12-17T07:42:27.904Z,8.70
2022-12-17T07:45:15.614Z,8.80
2022-12-17T07:48:02.024Z,9.67
2022-12-17T07:50:48.433Z,8.87
2022-12-17T07:53:35.040Z,9.10
2022-12-17T07:56:21.545Z,9.37
2022-12-17T07:59:08.029Z,8.63
2022-12-17T08:01:55.916Z,8.60
2022-12-17T08:04:42.536Z,8.13
2022-12-17T08:07:28.847Z,8.00
2022-12-17T08:10:15.089Z,8.13
2022-12-17T08:13:01.430Z,8.40
2022-12-17T08:15:47.901Z,7.47
2022-12-17T08:18:35.649Z,8.30
2022-12-17T08:21:22.158Z,8.57
2022-12-17T08:24:08.829Z,7.97
2022-12-17T08:26:55.195Z,8.87
2022-12-17T08:29:41.954Z,8.47
2022-12-17T08:32:28.967Z,8.87
2022-12-17T08:35:31.549Z,8.60
2022-12-17T08:38:21.314Z,8.93
2022-12-17T08:41:07.947Z,8.90
2022-12-17T08:43:54.474Z,8.73
2022-12-17T08:46:37.361Z,9.70
2022-12-17T08:49:24.212Z,9.50
2022-12-17T08:52:14.781Z,10.47
2022-12-17T08:55:01.472Z,10.07
2022-12-17T08:57:47.707Z,11.20
2022-12-17T09:00:34.697Z,9.93
2022-12-17T09:03:22.049Z,10.40
2022-12-17T09:06:11.238Z,9.73
2022-12-17T09:08:59.323Z,9.43
2022-12-17T09:11:51.712Z,9.40
2022-12-17T09:14:38.483Z,10.07
2022-12-17T09:17:36.692Z,9.27
2022-12-17T09:20:28.916Z,7.00
2022-12-17T09:23:16.119Z,8.80
2022-12-17T09:26:11.667Z,8.13
2022-12-17T09:28:58.384Z,7.10
2022-12-17T09:31:44.855Z,6.60
2022-12-17T09:34:31.744Z,6.30
2022-12-17T09:37:18.127Z,6.30
2022-12-17T09:40:04.756Z,6.13
2022-12-17T09:43:01.047Z,5.97
2022-12-17T09:45:51.871Z,5.37
2022-12-17T09:48:44.227Z,5.53
2022-12-17T09:51:40.039Z,5.80
2022-12-17T09:54:34.405Z,5.60
2022-12-17T09:57:21.376Z,5.37
2022-12-17T10:00:09.137Z,5.67
2022-12-17T10:02:59.235Z,5.00
2022-12-17T10:05:50.113Z,5.37
2022-12-17T10:08:39.413Z,5.57
2022-12-17T10:11:48.380Z,5.30
2022-12-17T10:14:38.299Z,5.80
2022-12-17T10:17:34.171Z,5.90
2022-12-17T10:20:20.880Z,5.57
2022-12-17T10:23:09.680Z,7.13
2022-12-17T10:25:56.090Z,8.40
2022-12-17T10:28:43.680Z,7.00
2022-12-17T10:31:35.652Z,8.83
2022-12-17T10:34:26.483Z,8.97
2022-12-17T10:37:13.431Z,7.10
2022-12-17T10:40:01.266Z,6.37
2022-12-17T10:42:49.401Z,8.90
2022-12-17T10:45:41.910Z,6.97
2022-12-17T10:48:40.534Z,5.77
2022-12-17T10:51:39.604Z,6.10
2022-12-17T10:54:37.013Z,5.53
2022-12-17T10:57:26.182Z,5.53
2022-12-17T11:00:13.400Z,5.50
2022-12-17T11:03:07.420Z,5.77
2022-12-17T11:05:59.671Z,5.50
2022-12-17T11:08:50.354Z,5.70
2022-12-17T11:11:36.822Z,5.17
2022-12-17T11:14:25.341Z,5.30
2022-12-17T11:17:13.798Z,4.93
2022-12-17T11:20:06.620Z,4.73
2022-12-17T11:22:58.353Z,4.40
2022-12-17T11:26:01.090Z,4.50
2022-12-17T11:28:51.913Z,4.33
2022-12-17T11:31:58.653Z,4.37
2022-12-17T11:34:54.355Z,4.20
2022-12-17T11:37:44.432Z,3.90
2022-12-17T11:40:40.905Z,3.50
2022-12-17T11:43:40.636Z,3.70
2022-12-17T11:46:38.115Z,3.33
2022-12-17T11:49:36.564Z,3.13
2022-12-17T11:52:31.014Z,3.10
2022-12-17T11:55:24.990Z,3.47
2022-12-17T11:58:19.345Z,3.93
2022-12-17T12:01:17.717Z,3.40
2022-12-17T12:04:14.749Z,3.30
2022-12-17T12:07:20.070Z,3.13
2022-12-17T12:10:12.001Z,2.70
2022-12-17T12:13:10.180Z,2.40
2022-12-17T12:16:06.868Z,2.40
2022-12-17T12:19:03.173Z,2.10
2022-12-17T12:21:58.272Z,2.43
2022-12-17T12:25:06.635Z,2.00
2022-12-17T12:28:00.745Z,1.90
2022-12-17T12:30:53.436Z,2.10
2022-12-17T12:33:50.460Z,1.97
2022-12-17T12:36:40.580Z,2.13
2022-12-17T12:39:31.950Z,1.97
2022-12-17T12:42:23.699Z,1.90
2022-12-17T12:45:18.710Z,2.23
2022-12-17T12:48:12.557Z,2.00
2022-12-17T12:51:07.627Z,1.87
2022-12-17T12:53:55.883Z,1.83
2022-12-17T12:56:52.455Z,1.83
2022-12-17T12:59:47.571Z,1.70
2022-12-17T13:02:45.481Z,1.70
2022-12-17T13:05:35.910Z,1.73
2022-12-17T13:08:19.366Z,1.73
2022-12-17T13:10:50.925Z,1.73
2022-12-17T13:13:31.939Z,1.70
2022-12-17T13:16:05.572Z,1.60
2022-12-17T13:18:37.519Z,1.70
2022-12-17T13:21:25.811Z,1.57
2022-12-17T13:23:55.244Z,1.80
2022-12-17T13:26:43.928Z,2.00
2022-12-17T13:29:19.882Z,1.80
2022-12-17T13:32:17.607Z,1.90
2022-12-17T13:35:00.086Z,1.50
2022-12-17T13:37:44.693Z,1.90
2022-12-17T13:40:27.317Z,1.80
2022-12-17T13:42:58.295Z,1.73
2022-12-17T13:45:29.316Z,1.57
2022-12-17T13:48:00.732Z,2.00
2022-12-17T13:50:34.697Z,1.80
2022-12-17T13:53:12.197Z,1.93
2022-12-17T13:55:41.934Z,2.00
2022-12-17T13:58:24.573Z,1.80
2022-12-17T14:01:05.217Z,2.10
2022-12-17T14:04:04.646Z,2.27
2022-12-17T14:06:25.894Z,1.90
2022-12-17T14:08:58.435Z,2.10
2022-12-17T14:11:45.791Z,2.40
2022-12-17T14:14:26.891Z,2.10
2022-12-17T14:16:57.264Z,2.53
2022-12-17T14:19:29.551Z,2.57
2022-12-17T14:21:59.321Z,2.77
2022-12-17T14:24:30.494Z,2.30
2022-12-17T14:27:01.552Z,2.50
2022-12-17T14:29:33.492Z,2.30
2022-12-17T14:32:05.410Z,2.17
2022-12-17T14:34:43.702Z,2.17
2022-12-17T14:37:18.953Z,2.40
2022-12-17T14:39:49.587Z,2.77
2022-12-17T14:42:29.892Z,2.80
2022-12-17T14:45:01.784Z,2.70
2022-12-17T14:47:32.156Z,2.70
2022-12-17T14:50:04.553Z,2.50
2022-12-17T14:52:39.264Z,2.87
2022-12-17T14:55:24.683Z,3.00
2022-12-17T14:57:54.912Z,2.33
2022-12-17T15:00:25.907Z,3.10
2022-12-17T15:02:57.430Z,3.50
2022-12-17T15:05:27.088Z,4.50
2022-12-17T15:07:57.065Z,4.10
2022-12-17T15:10:26.684Z,3.40
2022-12-17T15:12:56.211Z,3.27
2022-12-17T15:15:27.341Z,3.17
2022-12-17T15:17:56.703Z,3.20
2022-12-17T15:20:26.252Z,3.80
2022-12-17T15:22:55.748Z,4.70
2022-12-17T15:25:25.135Z,7.53
2022-12-17T15:27:55.751Z,11.63
2022-12-17T15:30:26.637Z,7.33
2022-12-17T15:32:56.127Z,8.83
2022-12-17T15:35:27.527Z,10.40
2022-12-17T15:37:57.003Z,12.90
2022-12-17T15:40:26.460Z,13.40
2022-12-17T15:43:13.247Z,13.07
2022-12-17T15:45:45.172Z,12.50
2022-12-17T15:48:15.376Z,9.87
2022-12-17T15:50:44.746Z,7.83
2022-12-17T15:53:14.209Z,8.10
2022-12-17T15:55:45.319Z,8.27
2022-12-17T15:58:14.795Z,9.17
2022-12-17T16:00:45.662Z,7.10
2022-12-17T16:03:15.301Z,39.93
2022-12-17T16:05:45.008Z,31.97
2022-12-17T16:08:14.546Z,15.07
2022-12-17T16:10:44.001Z,10.90
2022-12-17T16:13:13.626Z,9.20
2022-12-17T16:15:43.280Z,13.17
2022-12-17T16:18:16.238Z,11.53
2022-12-17T16:20:45.707Z,11.27
2022-12-17T16:23:15.073Z,6.37
2022-12-17T16:25:44.617Z,6.13
2022-12-17T16:28:13.956Z,8.13
2022-12-17T16:30:43.429Z,9.50
2022-12-17T16:33:14.569Z,6.60
2022-12-17T16:35:51.706Z,5.80
2022-12-17T16:38:21.969Z,5.83
2022-12-17T16:40:51.358Z,5.47
2022-12-17T16:43:20.730Z,5.30
2022-12-17T16:45:50.967Z,5.90
2022-12-17T16:48:22.426Z,6.10
2022-12-17T16:50:52.568Z,6.00
2022-12-17T16:53:22.077Z,6.97
2022-12-17T16:55:51.899Z,6.60
2022-12-17T16:58:21.731Z,5.80
2022-12-17T17:00:56.446Z,5.80
2022-12-17T17:03:27.649Z,5.33
2022-12-17T17:06:03.996Z,5.90
2022-12-17T17:08:33.783Z,6.00
2022-12-17T17:11:09.080Z,5.20
2022-12-17T17:13:39.078Z,4.97
2022-12-17T17:16:09.263Z,4.20
2022-12-17T17:18:42.181Z,4.00
2022-12-17T17:21:15.841Z,4.33
2022-12-17T17:23:45.672Z,4.53
2022-12-17T17:26:15.492Z,5.10
2022-12-17T17:28:44.907Z,4.70
2022-12-17T17:31:15.778Z,4.63
2022-12-17T17:33:48.943Z,4.87
2022-12-17T17:36:20.711Z,7.60
2022-12-17T17:38:51.769Z,8.03
2022-12-17T17:41:22.810Z,7.97
2022-12-17T17:43:55.440Z,5.67
2022-12-17T17:46:25.004Z,5.67
2022-12-17T17:48:58.748Z,4.70
2022-12-17T17:52:07.145Z,4.83
2022-12-17T17:54:19.332Z,4.97
2022-12-17T17:56:48.842Z,4.83
2022-12-17T17:59:19.674Z,5.00
2022-12-17T18:01:51.187Z,4.57
2022-12-17T18:04:24.471Z,4.00
2022-12-17T18:07:24.644Z,4.37
2022-12-17T18:09:43.683Z,5.03
2022-12-17T18:12:26.686Z,5.73
2022-12-17T18:17:46.174Z,6.27
2022-12-17T18:20:17.096Z,5.87
2022-12-17T18:22:47.156Z,5.27
2022-12-17T18:25:16.943Z,6.50
2022-12-17T18:27:46.514Z,7.20
2022-12-17T18:30:16.633Z,6.80
2022-12-17T18:32:46.143Z,6.50
2022-12-17T18:35:19.133Z,4.80
2022-12-17T18:37:49.516Z,5.40
2022-12-17T18:40:18.936Z,5.10
2022-12-17T18:43:05.430Z,4.70
2022-12-17T18:45:38.472Z,4.90
2022-12-17T18:48:08.239Z,5.53
2022-12-17T18:50:40.375Z,6.20
2022-12-17T18:53:10.022Z,6.00
2022-12-17T18:55:41.621Z,5.87
2022-12-17T18:58:11.481Z,6.27
2022-12-17T19:00:40.887Z,7.17
2022-12-17T19:03:10.426Z,9.10
2022-12-17T19:05:46.562Z,9.03
2022-12-17T19:08:17.655Z,9.37
2022-12-17T19:10:47.029Z,7.30
2022-12-17T19:13:16.424Z,7.63
2022-12-17T19:15:45.670Z,6.07
2022-12-17T19:18:15.045Z,6.50
2022-12-17T19:20:45.795Z,7.33
2022-12-17T19:23:15.316Z,6.90
2022-12-17T19:25:44.565Z,6.13
2022-12-17T19:28:13.947Z,6.20
2022-12-17T19:30:43.206Z,6.17
2022-12-17T19:33:12.524Z,5.67
2022-12-17T19:35:41.863Z,6.20
2022-12-17T19:38:12.767Z,6.00
2022-12-17T19:40:42.106Z,6.50
2022-12-17T19:43:11.315Z,5.93
2022-12-17T19:45:40.833Z,6.47
2022-12-17T19:48:10.138Z,7.60
2022-12-17T19:50:39.495Z,7.40
2022-12-17T19:53:08.905Z,7.40
2022-12-17T19:55:39.925Z,6.80
2022-12-17T19:58:09.336Z,7.67
2022-12-17T20:00:38.586Z,6.53
2022-12-17T20:03:08.049Z,6.83
2022-12-17T20:05:37.395Z,6.77
2022-12-17T20:08:07.364Z,8.60
2022-12-17T20:10:36.685Z,8.07
2022-12-17T20:13:07.726Z,8.80
2022-12-17T20:15:37.193Z,8.03
2022-12-17T20:18:06.676Z,7.40
2022-12-17T20:20:36.148Z,7.77
2022-12-17T20:23:05.495Z,8.20
2022-12-17T20:25:34.985Z,7.20
2022-12-17T20:28:04.395Z,7.30
2022-12-17T20:30:35.477Z,7.63
2022-12-17T20:33:04.997Z,7.13
2022-12-17T20:35:34.364Z,7.77
2022-12-17T20:38:03.816Z,13.47
2022-12-17T20:40:34.035Z,10.70
2022-12-17T20:43:04.124Z,7.90
2022-12-17T20:45:33.521Z,8.27
2022-12-17T20:48:04.716Z,9.47
2022-12-17T20:50:34.206Z,8.07
2022-12-17T20:53:03.540Z,8.63
2022-12-17T20:55:33.013Z,9.63
2022-12-17T20:58:02.346Z,8.70
2022-12-17T21:00:31.772Z,8.30
2022-12-17T21:03:01.378Z,8.20
2022-12-17T21:05:32.416Z,7.27
2022-12-17T21:08:01.909Z,8.40
2022-12-17T21:10:31.253Z,8.40
2022-12-17T21:13:17.888Z,8.37
2022-12-17T21:15:50.962Z,9.00
2022-12-17T21:18:20.419Z,8.90
2022-12-17T21:20:58.157Z,10.23
2022-12-17T21:23:27.712Z,9.30
2022-12-17T21:26:01.311Z,9.07
2022-12-17T21:28:31.929Z,8.33
2022-12-17T21:31:01.310Z,8.20
2022-12-17T21:33:31.187Z,8.33
2022-12-17T21:36:07.817Z,11.47
2022-12-17T21:38:38.013Z,10.83
2022-12-17T21:41:08.205Z,11.67
2022-12-17T21:43:38.352Z,8.63
2022-12-17T21:46:08.362Z,8.73
2022-12-17T21:48:41.873Z,9.77
2022-12-17T21:51:13.900Z,9.00
2022-12-17T21:53:44.114Z,8.67
2022-12-17T21:56:14.282Z,8.30
2022-12-17T21:58:44.771Z,8.23
2022-12-17T22:01:18.954Z,8.07
2022-12-17T22:03:53.569Z,8.47
2022-12-17T22:06:28.583Z,8.67
2022-12-17T22:09:11.306Z,8.83
2022-12-17T22:12:14.575Z,8.83
2022-12-17T22:14:43.041Z,9.97
2022-12-17T22:17:12.373Z,9.60
2022-12-17T22:19:41.947Z,9.83
2022-12-17T22:22:12.845Z,9.17
2022-12-17T22:24:42.314Z,8.80
2022-12-17T22:27:13.283Z,8.50
2022-12-17T22:29:59.839Z,9.20
2022-12-17T22:32:46.747Z,8.60
2022-12-17T22:36:43.673Z,8.60
2022-12-17T22:40:50.083Z,9.07
2022-12-17T22:44:37.654Z,8.73
2022-12-17T22:44:49.753Z,8.83
2022-12-17T22:46:43.927Z,9.00
2022-12-17T22:49:13.454Z,8.47
2022-12-17T22:51:43.640Z,8.77
2022-12-17T22:54:15.825Z,8.13
2022-12-17T22:57:16.884Z,8.13
2022-12-17T22:59:35.251Z,8.00
2022-12-17T23:02:04.597Z,8.63
2022-12-17T23:04:34.149Z,8.60
2022-12-17T23:07:03.808Z,8.40
2022-12-17T23:09:34.802Z,8.87
2022-12-17T23:12:24.515Z,7.90
2022-12-17T23:14:54.016Z,8.20
2022-12-17T23:17:23.334Z,8.23
2022-12-17T23:19:52.769Z,8.17
2022-12-17T23:22:22.575Z,7.73
2022-12-17T23:24:53.596Z,8.37
2022-12-17T23:27:23.203Z,7.90
2022-12-17T23:29:52.596Z,8.33
2022-12-17T23:32:22.071Z,8.03
2022-12-17T23:34:51.359Z,7.80
2022-12-17T23:37:20.811Z,8.00
2022-12-17T23:39:50.148Z,7.93
2022-12-17T23:42:21.114Z,7.87
2022-12-17T23:44:50.734Z,7.70
2022-12-17T23:47:20.060Z,7.97
2022-12-17T23:49:49.712Z,7.67
2022-12-17T23:52:19.130Z,8.10
2022-12-17T23:54:48.582Z,7.73
2022-12-17T23:57:17.901Z,7.90
2022-12-17T23:59:48.907Z,7.80
